createdAt,value
2023-04-27T00:00:14.226Z,82.27
2023-04-27T00:01:14.240Z,82.51
2023-04-27T00:02:14.358Z,82.17
2023-04-27T00:03:14.338Z,82.62
2023-04-27T00:04:14.422Z,82.41
2023-04-27T00:05:14.566Z,82.79
2023-04-27T00:06:14.251Z,82.82
2023-04-27T00:07:14.217Z,83.14
2023-04-27T00:08:14.177Z,83.55
2023-04-27T00:09:14.305Z,83.14
2023-04-27T00:10:14.157Z,83.28
2023-04-27T00:11:14.153Z,83.65
2023-04-27T00:12:14.162Z,83.55
2023-04-27T00:13:14.134Z,83.76
2023-04-27T00:14:14.138Z,83.45
2023-04-27T00:15:14.116Z,83.34
2023-04-27T00:16:14.149Z,83.24
2023-04-27T00:17:14.131Z,83.03
2023-04-27T00:18:14.101Z,83.03
2023-04-27T00:19:14.273Z,83.14
2023-04-27T00:20:14.088Z,82.97
2023-04-27T00:21:14.074Z,83.03
2023-04-27T00:22:14.087Z,83.17
2023-04-27T00:23:14.057Z,83.55
2023-04-27T00:24:14.049Z,82.93
2023-04-27T00:25:14.063Z,83.24
2023-04-27T00:26:14.041Z,83.34
2023-04-27T00:27:14.088Z,82.93
2023-04-27T00:28:14.033Z,82.93
2023-04-27T00:29:14.286Z,83.34
2023-04-27T00:30:14.013Z,83.34
2023-04-27T00:31:14.011Z,82.76
2023-04-27T00:32:14.090Z,83.38
2023-04-27T00:33:13.988Z,83.28
2023-04-27T00:34:13.977Z,83.17
2023-04-27T00:35:13.982Z,83.17
2023-04-27T00:36:13.967Z,82.82
2023-04-27T00:37:13.991Z,83.28
2023-04-27T00:38:13.949Z,83.28
2023-04-27T00:39:14.230Z,83.69
2023-04-27T00:40:13.947Z,83.24
2023-04-27T00:41:13.929Z,83.17
2023-04-27T00:42:13.945Z,83.65
2023-04-27T00:43:13.920Z,83.34
2023-04-27T00:44:13.915Z,83.65
2023-04-27T00:45:13.921Z,83.86
2023-04-27T00:46:13.945Z,84.28
2023-04-27T00:47:14.912Z,84.00
2023-04-27T00:48:13.901Z,84.21
2023-04-27T00:49:14.099Z,84.52
2023-04-27T00:50:13.861Z,85.11
2023-04-27T00:51:13.894Z,84.42
2023-04-27T00:52:13.909Z,84.28
2023-04-27T00:53:13.834Z,84.52
2023-04-27T00:54:13.830Z,84.94
2023-04-27T00:55:13.813Z,84.83
2023-04-27T00:56:13.808Z,85.04
2023-04-27T00:57:13.829Z,84.90
2023-04-27T00:58:13.812Z,84.69
2023-04-27T00:59:13.989Z,85.56
2023-04-27T01:00:13.784Z,85.56
2023-04-27T01:01:13.814Z,85.25
2023-04-27T01:02:13.993Z,85.97
2023-04-27T01:03:14.847Z,86.18
2023-04-27T01:04:13.938Z,86.39
2023-04-27T01:05:13.759Z,86.18
2023-04-27T01:06:13.743Z,86.29
2023-04-27T01:07:13.763Z,86.74
2023-04-27T01:08:13.732Z,86.70
2023-04-27T01:09:14.073Z,86.80
2023-04-27T01:10:13.709Z,87.53
2023-04-27T01:11:13.694Z,87.57
2023-04-27T01:12:13.701Z,87.63
2023-04-27T01:13:13.709Z,87.68
2023-04-27T01:14:13.673Z,87.53
2023-04-27T01:15:13.679Z,87.43
2023-04-27T01:16:13.772Z,87.53
2023-04-27T01:17:13.690Z,87.74
2023-04-27T01:18:13.654Z,88.05
2023-04-27T01:19:13.831Z,88.57
2023-04-27T01:20:13.662Z,87.84
2023-04-27T01:21:13.628Z,87.84
2023-04-27T01:22:13.915Z,87.74
2023-04-27T01:23:16.138Z,87.43
2023-04-27T01:24:13.603Z,87.63
2023-04-27T01:25:13.616Z,87.74
2023-04-27T01:26:13.586Z,86.29
2023-04-27T01:27:13.605Z,86.29
2023-04-27T01:28:13.571Z,86.25
2023-04-27T01:29:13.843Z,86.25
2023-04-27T01:30:13.594Z,85.83
2023-04-27T01:31:13.567Z,85.63
2023-04-27T01:32:13.630Z,85.73
2023-04-27T01:33:13.538Z,85.42
2023-04-27T01:34:13.583Z,85.31
2023-04-27T01:35:13.528Z,85.52
2023-04-27T01:36:13.664Z,85.42
2023-04-27T01:37:13.686Z,85.42
2023-04-27T01:38:13.499Z,85.52
2023-04-27T01:39:14.775Z,85.73
2023-04-27T01:40:13.530Z,85.21
2023-04-27T01:41:13.494Z,85.21
2023-04-27T01:42:13.522Z,85.42
2023-04-27T01:43:13.457Z,85.21
2023-04-27T01:44:13.471Z,85.63
2023-04-27T01:45:13.445Z,85.63
2023-04-27T01:46:13.519Z,85.63
2023-04-27T01:47:13.470Z,85.21
2023-04-27T01:48:13.433Z,85.52
2023-04-27T01:49:13.574Z,85.63
2023-04-27T01:50:13.417Z,85.52
2023-04-27T01:51:13.407Z,85.52
2023-04-27T01:52:13.428Z,85.52
2023-04-27T01:53:13.388Z,85.42
2023-04-27T01:54:13.378Z,85.63
2023-04-27T01:55:13.371Z,85.46
2023-04-27T01:56:13.370Z,85.63
2023-04-27T01:57:13.383Z,85.63
2023-04-27T01:58:13.480Z,85.52
2023-04-27T01:59:13.557Z,85.31
2023-04-27T02:00:13.339Z,85.42
2023-04-27T02:01:13.354Z,85.31
2023-04-27T02:02:13.357Z,84.90
2023-04-27T02:03:13.441Z,85.17
2023-04-27T02:04:13.502Z,84.65
2023-04-27T02:05:13.307Z,84.55
2023-04-27T02:06:13.302Z,84.65
2023-04-27T02:07:13.311Z,84.23
2023-04-27T02:08:13.278Z,84.44
2023-04-27T02:09:13.387Z,84.75
2023-04-27T02:10:13.258Z,83.93
2023-04-27T02:11:13.245Z,83.93
2023-04-27T02:12:13.277Z,84.13
2023-04-27T02:13:13.238Z,83.83
2023-04-27T02:14:13.224Z,84.65
2023-04-27T02:15:13.248Z,84.17
2023-04-27T02:16:13.268Z,85.06
2023-04-27T02:17:13.225Z,85.06
2023-04-27T02:18:13.207Z,84.96
2023-04-27T02:19:13.458Z,84.23
2023-04-27T02:20:13.198Z,84.75
2023-04-27T02:21:13.170Z,84.44
2023-04-27T02:22:13.187Z,83.93
2023-04-27T02:23:13.164Z,84.65
2023-04-27T02:24:13.151Z,84.28
2023-04-27T02:25:13.169Z,84.28
2023-04-27T02:26:13.139Z,84.48
2023-04-27T02:27:13.160Z,84.38
2023-04-27T02:28:13.128Z,84.59
2023-04-27T02:29:13.394Z,84.48
2023-04-27T02:30:13.115Z,84.28
2023-04-27T02:31:13.140Z,85.00
2023-04-27T02:32:13.112Z,85.04
2023-04-27T02:33:13.092Z,84.59
2023-04-27T02:34:13.075Z,84.69
2023-04-27T02:35:13.074Z,85.21
2023-04-27T02:36:13.062Z,84.80
2023-04-27T02:37:13.078Z,85.31
2023-04-27T02:38:13.041Z,85.06
2023-04-27T02:39:13.294Z,84.80
2023-04-27T02:40:13.031Z,84.44
2023-04-27T02:41:13.029Z,84.38
2023-04-27T02:42:13.053Z,83.93
2023-04-27T02:43:13.032Z,84.17
2023-04-27T02:44:13.041Z,83.97
2023-04-27T02:45:12.992Z,83.83
2023-04-27T02:46:13.018Z,84.07
2023-04-27T02:47:12.999Z,84.28
2023-04-27T02:48:13.006Z,84.69
2023-04-27T02:49:13.095Z,84.59
2023-04-27T02:50:12.954Z,84.69
2023-04-27T02:51:12.946Z,84.48
2023-04-27T02:52:12.935Z,84.48
2023-04-27T02:53:13.959Z,84.17
2023-04-27T02:54:12.932Z,84.28
2023-04-27T02:55:12.917Z,84.90
2023-04-27T02:56:12.912Z,85.11
2023-04-27T02:57:12.899Z,85.21
2023-04-27T02:58:12.918Z,85.42
2023-04-27T02:59:13.029Z,85.52
2023-04-27T03:00:12.878Z,85.52
2023-04-27T03:01:12.957Z,84.86
2023-04-27T03:02:12.858Z,84.69
2023-04-27T03:03:13.021Z,85.00
2023-04-27T03:04:12.954Z,85.27
2023-04-27T03:05:12.865Z,85.31
2023-04-27T03:06:12.831Z,85.58
2023-04-27T03:07:12.845Z,85.42
2023-04-27T03:08:12.848Z,85.31
2023-04-27T03:09:13.028Z,85.31
2023-04-27T03:10:12.800Z,85.42
2023-04-27T03:11:12.797Z,85.21
2023-04-27T03:12:12.790Z,85.11
2023-04-27T03:13:12.800Z,85.25
2023-04-27T03:14:12.784Z,85.11
2023-04-27T03:15:12.764Z,84.80
2023-04-27T03:16:12.790Z,85.63
2023-04-27T03:17:12.748Z,85.21
2023-04-27T03:18:12.771Z,85.52
2023-04-27T03:19:12.901Z,85.73
2023-04-27T03:20:12.772Z,85.83
2023-04-27T03:21:12.731Z,85.94
2023-04-27T03:22:12.729Z,85.83
2023-04-27T03:23:12.744Z,85.94
2023-04-27T03:24:12.697Z,85.83
2023-04-27T03:25:12.695Z,85.73
2023-04-27T03:26:12.682Z,85.63
2023-04-27T03:27:12.675Z,85.66
2023-04-27T03:28:12.736Z,86.04
2023-04-27T03:29:12.815Z,86.18
2023-04-27T03:30:12.685Z,86.15
2023-04-27T03:31:12.649Z,86.25
2023-04-27T03:32:12.709Z,86.25
2023-04-27T03:33:12.742Z,86.15
2023-04-27T03:34:12.619Z,86.15
2023-04-27T03:35:12.622Z,86.04
2023-04-27T03:36:12.617Z,86.55
2023-04-27T03:37:12.599Z,86.55
2023-04-27T03:38:12.624Z,86.66
2023-04-27T03:39:12.758Z,86.25
2023-04-27T03:40:12.592Z,86.25
2023-04-27T03:41:12.580Z,86.25
2023-04-27T03:42:12.563Z,86.25
2023-04-27T03:43:12.625Z,86.45
2023-04-27T03:44:12.643Z,86.35
2023-04-27T03:45:12.611Z,86.25
2023-04-27T03:46:12.593Z,86.35
2023-04-27T03:47:12.523Z,86.45
2023-04-27T03:48:12.539Z,86.70
2023-04-27T03:49:12.667Z,86.87
2023-04-27T03:50:12.505Z,87.32
2023-04-27T03:51:12.517Z,87.28
2023-04-27T03:52:12.481Z,87.38
2023-04-27T03:53:12.503Z,87.63
2023-04-27T03:54:12.468Z,87.53
2023-04-27T03:55:12.485Z,87.74
2023-04-27T03:56:12.454Z,87.63
2023-04-27T03:57:12.501Z,87.53
2023-04-27T03:58:12.722Z,87.53
2023-04-27T03:59:12.642Z,87.43
2023-04-27T04:00:12.448Z,87.28
2023-04-27T04:01:12.425Z,87.49
2023-04-27T04:02:12.431Z,87.49
2023-04-27T04:03:12.600Z,87.49
2023-04-27T04:04:12.548Z,87.49
2023-04-27T04:05:12.515Z,87.49
2023-04-27T04:06:12.391Z,87.74
2023-04-27T04:07:12.373Z,87.95
2023-04-27T04:08:12.396Z,89.03
2023-04-27T04:09:12.507Z,89.65
2023-04-27T04:10:12.362Z,89.81
2023-04-27T04:11:12.350Z,89.54
2023-04-27T04:12:12.338Z,89.96
2023-04-27T04:13:12.354Z,89.65
2023-04-27T04:14:12.324Z,89.54
2023-04-27T04:15:12.340Z,89.23
2023-04-27T04:16:12.386Z,89.44
2023-04-27T04:17:12.327Z,89.40
2023-04-27T04:18:12.316Z,89.50
2023-04-27T04:19:12.417Z,89.61
2023-04-27T04:20:12.279Z,89.81
2023-04-27T04:21:12.292Z,90.02
2023-04-27T04:22:12.273Z,89.75
2023-04-27T04:23:12.687Z,90.27
2023-04-27T04:24:12.249Z,90.48
2023-04-27T04:25:12.276Z,90.58
2023-04-27T04:26:12.259Z,91.00
2023-04-27T04:27:12.250Z,90.69
2023-04-27T04:28:12.263Z,90.69
2023-04-27T04:29:12.372Z,90.64
2023-04-27T04:30:12.259Z,90.02
2023-04-27T04:31:12.217Z,90.44
2023-04-27T04:32:12.182Z,90.44
2023-04-27T04:33:12.209Z,90.12
2023-04-27T04:34:12.188Z,89.92
2023-04-27T04:35:12.173Z,90.23
2023-04-27T04:36:12.155Z,90.44
2023-04-27T04:37:12.160Z,90.02
2023-04-27T04:38:12.173Z,89.50
2023-04-27T04:39:12.346Z,89.50
2023-04-27T04:40:12.153Z,89.56
2023-04-27T04:41:12.121Z,89.50
2023-04-27T04:42:12.107Z,89.40
2023-04-27T04:43:12.127Z,89.09
2023-04-27T04:44:12.108Z,89.61
2023-04-27T04:45:12.082Z,89.56
2023-04-27T04:46:12.084Z,89.40
2023-04-27T04:47:12.070Z,89.61
2023-04-27T04:48:12.114Z,89.77
2023-04-27T04:49:12.246Z,89.50
2023-04-27T04:50:12.053Z,88.88
2023-04-27T04:51:12.068Z,89.71
2023-04-27T04:52:12.066Z,90.02
2023-04-27T04:53:12.113Z,90.75
2023-04-27T04:54:12.051Z,90.64
2023-04-27T04:55:12.028Z,90.44
2023-04-27T04:56:12.039Z,89.92
2023-04-27T04:57:12.023Z,90.29
2023-04-27T04:58:12.066Z,90.08
2023-04-27T04:59:12.141Z,89.36
2023-04-27T05:00:12.011Z,89.67
2023-04-27T05:01:12.028Z,89.56
2023-04-27T05:02:12.036Z,89.56
2023-04-27T05:03:12.272Z,89.56
2023-04-27T05:04:12.234Z,89.15
2023-04-27T05:05:11.937Z,89.15
2023-04-27T05:06:11.929Z,89.04
2023-04-27T05:07:14.588Z,88.53
2023-04-27T05:08:12.938Z,88.32
2023-04-27T05:09:12.005Z,88.42
2023-04-27T05:10:11.906Z,88.53
2023-04-27T05:11:11.909Z,88.94
2023-04-27T05:12:11.882Z,88.59
2023-04-27T05:13:11.906Z,88.32
2023-04-27T05:14:11.889Z,88.84
2023-04-27T05:15:11.865Z,88.94
2023-04-27T05:16:11.927Z,88.84
2023-04-27T05:17:11.892Z,88.73
2023-04-27T05:18:11.841Z,87.70
2023-04-27T05:19:12.044Z,87.97
2023-04-27T05:20:11.938Z,87.35
2023-04-27T05:21:11.813Z,87.35
2023-04-27T05:22:11.911Z,86.52
2023-04-27T05:23:11.816Z,86.52
2023-04-27T05:24:11.865Z,86.31
2023-04-27T05:25:11.798Z,86.37
2023-04-27T05:26:11.794Z,86.13
2023-04-27T05:27:45.834Z,85.65
2023-04-27T05:28:11.804Z,85.24
2023-04-27T05:29:11.966Z,85.92
2023-04-27T05:30:11.759Z,85.96
2023-04-27T05:31:11.802Z,85.19
2023-04-27T05:32:11.735Z,84.47
2023-04-27T05:33:11.829Z,84.47
2023-04-27T05:34:11.711Z,84.68
2023-04-27T05:35:12.731Z,84.88
2023-04-27T05:36:11.712Z,85.09
2023-04-27T05:37:11.711Z,84.84
2023-04-27T05:38:11.727Z,83.71
2023-04-27T05:39:11.842Z,84.47
2023-04-27T05:40:11.680Z,84.39
2023-04-27T05:41:11.732Z,83.53
2023-04-27T05:42:11.666Z,83.11
2023-04-27T05:43:11.679Z,82.25
2023-04-27T05:44:11.646Z,81.28
2023-04-27T05:45:11.658Z,81.28
2023-04-27T05:46:11.707Z,81.42
2023-04-27T05:47:11.635Z,81.11
2023-04-27T05:48:11.670Z,80.76
2023-04-27T05:49:11.758Z,81.05
2023-04-27T05:50:11.616Z,82.39
2023-04-27T05:51:11.646Z,82.60
2023-04-27T05:52:11.607Z,82.95
2023-04-27T05:53:11.605Z,82.12
2023-04-27T05:54:11.620Z,83.09
2023-04-27T05:55:11.570Z,82.98
2023-04-27T05:56:11.571Z,84.22
2023-04-27T05:57:11.557Z,84.53
2023-04-27T05:58:11.544Z,84.43
2023-04-27T05:59:11.785Z,84.53
2023-04-27T06:00:11.547Z,85.16
2023-04-27T06:01:11.530Z,85.16
2023-04-27T06:02:11.553Z,85.47
2023-04-27T06:03:11.725Z,85.16
2023-04-27T06:04:12.436Z,85.02
2023-04-27T06:05:11.529Z,85.16
2023-04-27T06:06:11.501Z,85.47
2023-04-27T06:07:11.516Z,85.40
2023-04-27T06:08:11.475Z,85.82
2023-04-27T06:09:11.690Z,85.86
2023-04-27T06:10:11.471Z,86.44
2023-04-27T06:11:11.456Z,86.40
2023-04-27T06:12:11.446Z,85.82
2023-04-27T06:13:11.435Z,86.19
2023-04-27T06:14:11.515Z,85.84
2023-04-27T06:15:11.457Z,85.39
2023-04-27T06:16:11.493Z,84.31
2023-04-27T06:17:11.409Z,84.17
2023-04-27T06:18:11.469Z,82.52
2023-04-27T06:19:11.534Z,82.97
2023-04-27T06:20:11.417Z,83.32
2023-04-27T06:21:11.380Z,82.76
2023-04-27T06:22:11.368Z,83.63
2023-04-27T06:23:11.373Z,82.18
2023-04-27T06:24:11.377Z,82.80
2023-04-27T06:25:11.352Z,84.66
2023-04-27T06:26:11.536Z,84.11
2023-04-27T06:27:11.349Z,83.72
2023-04-27T06:28:11.335Z,81.76
2023-04-27T06:29:11.529Z,81.79
2023-04-27T06:30:11.300Z,81.51
2023-04-27T06:31:11.332Z,79.03
2023-04-27T06:32:11.344Z,77.28
2023-04-27T06:33:11.319Z,78.94
2023-04-27T06:34:11.307Z,78.42
2023-04-27T06:35:11.268Z,76.15
2023-04-27T06:36:11.258Z,76.15
2023-04-27T06:37:11.278Z,77.91
2023-04-27T06:38:11.238Z,77.08
2023-04-27T06:39:11.346Z,76.98
2023-04-27T06:40:11.224Z,77.80
2023-04-27T06:41:11.226Z,75.81
2023-04-27T06:42:11.211Z,71.09
2023-04-27T06:43:11.226Z,71.95
2023-04-27T06:44:11.216Z,73.09
2023-04-27T06:45:12.188Z,73.36
2023-04-27T06:46:11.215Z,74.02
2023-04-27T06:47:11.207Z,74.60
2023-04-27T06:48:11.177Z,73.64
2023-04-27T06:49:12.019Z,73.64
2023-04-27T06:50:11.156Z,73.12
2023-04-27T06:51:11.154Z,74.26
2023-04-27T06:52:11.132Z,72.92
2023-04-27T06:53:11.130Z,73.36
2023-04-27T06:54:11.136Z,73.47
2023-04-27T06:55:11.134Z,75.22
2023-04-27T06:56:11.112Z,75.09
2023-04-27T06:57:11.097Z,74.77
2023-04-27T06:58:11.097Z,73.64
2023-04-27T06:59:11.230Z,72.81
2023-04-27T07:00:11.078Z,71.92
2023-04-27T07:01:11.158Z,74.60
2023-04-27T07:02:11.075Z,75.26
2023-04-27T07:03:11.281Z,75.32
2023-04-27T07:04:11.246Z,71.85
2023-04-27T07:05:11.034Z,72.40
2023-04-27T07:06:11.027Z,73.95
2023-04-27T07:07:11.043Z,75.18
2023-04-27T07:08:11.014Z,73.68
2023-04-27T07:09:20.465Z,72.58
2023-04-27T07:10:12.994Z,72.27
2023-04-27T07:11:10.993Z,72.50
2023-04-27T07:12:10.974Z,73.71
2023-04-27T07:13:11.817Z,73.02
2023-04-27T07:14:10.999Z,73.22
2023-04-27T07:15:10.965Z,74.43
2023-04-27T07:16:10.992Z,74.12
2023-04-27T07:17:10.942Z,72.06
2023-04-27T07:18:10.975Z,71.95
2023-04-27T07:19:12.263Z,71.68
2023-04-27T07:20:10.921Z,73.54
2023-04-27T07:21:10.909Z,72.16
2023-04-27T07:22:10.952Z,72.47
2023-04-27T07:23:10.904Z,73.26
2023-04-27T07:24:10.920Z,71.20
2023-04-27T07:25:10.875Z,70.89
2023-04-27T07:26:10.875Z,70.41
2023-04-27T07:27:10.861Z,71.55
2023-04-27T07:28:10.887Z,72.71
2023-04-27T07:29:25.766Z,70.10
2023-04-27T07:30:12.844Z,71.72
2023-04-27T07:31:10.899Z,70.35
2023-04-27T07:32:10.860Z,68.80
2023-04-27T07:33:10.872Z,68.87
2023-04-27T07:34:10.818Z,70.38
2023-04-27T07:35:10.821Z,68.43
2023-04-27T07:36:10.798Z,68.80
2023-04-27T07:37:10.791Z,68.16
2023-04-27T07:38:10.797Z,69.29
2023-04-27T07:39:10.814Z,68.57
2023-04-27T07:40:10.757Z,68.94
2023-04-27T07:41:10.759Z,69.38
2023-04-27T07:42:10.760Z,68.46
2023-04-27T07:43:10.761Z,68.35
2023-04-27T07:44:10.739Z,70.00
2023-04-27T07:45:10.781Z,68.53
2023-04-27T07:46:10.766Z,68.43
2023-04-27T07:47:10.760Z,68.43
2023-04-27T07:48:10.767Z,69.76
2023-04-27T07:49:10.750Z,68.77
2023-04-27T07:50:10.697Z,67.85
2023-04-27T07:51:10.680Z,68.13
2023-04-27T07:52:10.683Z,66.66
2023-04-27T07:53:10.701Z,65.80
2023-04-27T07:54:10.663Z,67.13
2023-04-27T07:55:10.649Z,66.51
2023-04-27T07:56:10.654Z,66.13
2023-04-27T07:57:10.631Z,68.37
2023-04-27T07:58:10.650Z,66.28
2023-04-27T07:59:10.812Z,66.79
2023-04-27T08:00:10.608Z,66.66
2023-04-27T08:01:10.608Z,65.19
2023-04-27T08:02:19.760Z,63.98
2023-04-27T08:03:12.986Z,64.81
2023-04-27T08:04:10.744Z,66.38
2023-04-27T08:05:10.769Z,64.94
2023-04-27T08:06:10.936Z,66.17
2023-04-27T08:07:10.819Z,65.28
2023-04-27T08:08:10.568Z,64.97
2023-04-27T08:09:10.578Z,64.94
2023-04-27T08:10:10.553Z,64.84
2023-04-27T08:11:10.531Z,65.32
2023-04-27T08:12:10.518Z,66.31
2023-04-27T08:13:10.524Z,63.34
2023-04-27T08:14:10.554Z,62.73
2023-04-27T08:15:10.504Z,61.36
2023-04-27T08:16:10.516Z,58.83
2023-04-27T08:17:10.487Z,59.41
2023-04-27T08:18:10.592Z,60.80
2023-04-27T08:19:10.546Z,61.13
2023-04-27T08:20:10.456Z,60.58
2023-04-27T08:21:10.444Z,59.11
2023-04-27T08:22:10.446Z,59.13
2023-04-27T08:23:10.441Z,58.03
2023-04-27T08:24:10.449Z,58.18
2023-04-27T08:25:10.428Z,58.44
2023-04-27T08:26:10.428Z,57.51
2023-04-27T08:27:10.450Z,56.20
2023-04-27T08:28:11.399Z,55.33
2023-04-27T08:29:19.887Z,57.13
2023-04-27T08:30:12.458Z,58.33
2023-04-27T08:31:10.413Z,56.38
2023-04-27T08:32:10.363Z,57.03
2023-04-27T08:33:10.369Z,58.26
2023-04-27T08:34:10.377Z,56.34
2023-04-27T08:35:10.346Z,58.07
2023-04-27T08:36:10.364Z,58.26
2023-04-27T08:37:10.334Z,57.20
2023-04-27T08:38:10.317Z,57.03
2023-04-27T08:39:10.336Z,55.26
2023-04-27T08:40:10.319Z,59.97
2023-04-27T08:41:20.877Z,58.77
2023-04-27T08:42:12.304Z,57.03
2023-04-27T08:43:10.293Z,58.36
2023-04-27T08:44:10.337Z,56.77
2023-04-27T08:45:10.267Z,53.31
2023-04-27T08:46:10.259Z,53.33
2023-04-27T08:47:10.267Z,55.18
2023-04-27T08:48:10.352Z,54.15
2023-04-27T08:49:10.267Z,55.49
2023-04-27T08:50:10.229Z,56.41
2023-04-27T08:51:10.221Z,57.33
2023-04-27T08:52:10.224Z,56.90
2023-04-27T08:53:10.202Z,57.33
2023-04-27T08:54:10.225Z,55.02
2023-04-27T08:55:10.198Z,54.90
2023-04-27T08:56:10.180Z,53.57
2023-04-27T08:57:10.174Z,55.23
2023-04-27T08:58:10.167Z,54.38
2023-04-27T08:59:10.185Z,55.05
2023-04-27T09:00:10.148Z,54.90
2023-04-27T09:01:10.153Z,55.21
2023-04-27T09:02:10.194Z,56.30
2023-04-27T09:03:10.276Z,56.71
2023-04-27T09:04:10.407Z,56.49
2023-04-27T09:05:10.224Z,56.64
2023-04-27T09:06:10.159Z,54.72
2023-04-27T09:07:10.099Z,56.92
2023-04-27T09:08:10.100Z,56.76
2023-04-27T09:09:10.102Z,55.94
2023-04-27T09:10:11.102Z,54.95
2023-04-27T09:11:10.075Z,54.82
2023-04-27T09:12:10.084Z,54.87
2023-04-27T09:13:10.075Z,56.17
2023-04-27T09:14:10.070Z,53.75
2023-04-27T09:15:10.047Z,54.36
2023-04-27T09:16:10.127Z,56.28
2023-04-27T09:17:10.031Z,56.63
2023-04-27T09:18:10.018Z,53.83
2023-04-27T09:19:10.048Z,53.49
2023-04-27T09:20:10.011Z,56.18
2023-04-27T09:21:09.998Z,54.10
2023-04-27T09:22:10.007Z,54.72
2023-04-27T09:23:09.990Z,53.98
2023-04-27T09:24:10.015Z,54.51
2023-04-27T09:25:09.965Z,54.61
2023-04-27T09:26:10.011Z,54.90
2023-04-27T09:27:09.948Z,54.13
2023-04-27T09:28:09.941Z,54.00
2023-04-27T09:29:09.992Z,54.49
2023-04-27T09:30:09.936Z,54.82
2023-04-27T09:31:09.973Z,53.75
2023-04-27T09:32:10.909Z,53.69
2023-04-27T09:33:09.903Z,54.18
2023-04-27T09:34:09.928Z,54.97
2023-04-27T09:35:09.883Z,55.94
2023-04-27T09:36:09.889Z,59.12
2023-04-27T09:37:09.879Z,55.79
2023-04-27T09:38:09.877Z,53.06
2023-04-27T09:39:09.914Z,53.92
2023-04-27T09:40:10.868Z,54.85
2023-04-27T09:41:09.866Z,55.15
2023-04-27T09:42:09.843Z,52.34
2023-04-27T09:43:09.844Z,53.92
2023-04-27T09:44:09.890Z,52.72
2023-04-27T09:45:09.827Z,53.36
2023-04-27T09:46:09.845Z,53.49
2023-04-27T09:47:09.812Z,54.72
2023-04-27T09:48:09.792Z,56.81
2023-04-27T09:49:09.813Z,53.31
2023-04-27T09:50:09.785Z,54.41
2023-04-27T09:51:09.805Z,53.42
2023-04-27T09:52:10.518Z,54.31
2023-04-27T09:53:10.503Z,51.78
2023-04-27T09:54:09.783Z,53.95
2023-04-27T09:55:09.741Z,54.33
2023-04-27T09:56:09.756Z,51.91
2023-04-27T09:57:09.766Z,54.08
2023-04-27T09:58:09.718Z,53.44
2023-04-27T09:59:09.745Z,54.41
2023-04-27T10:00:09.714Z,50.84
2023-04-27T10:01:09.777Z,50.29
2023-04-27T10:02:23.664Z,48.28
2023-04-27T10:03:11.780Z,47.58
2023-04-27T10:04:09.858Z,46.48
2023-04-27T10:05:09.721Z,45.67
2023-04-27T10:06:09.676Z,45.79
2023-04-27T10:07:09.640Z,44.89
2023-04-27T10:08:09.687Z,47.54
2023-04-27T10:09:09.686Z,47.21
2023-04-27T10:10:09.677Z,45.76
2023-04-27T10:11:09.694Z,46.37
2023-04-27T10:12:09.623Z,44.93
2023-04-27T10:13:09.633Z,45.83
2023-04-27T10:14:09.619Z,48.60
2023-04-27T10:15:09.613Z,47.28
2023-04-27T10:16:09.619Z,47.28
2023-04-27T10:17:09.725Z,47.58
2023-04-27T10:18:09.660Z,47.26
2023-04-27T10:19:09.602Z,46.26
2023-04-27T10:20:09.586Z,46.97
2023-04-27T10:21:09.566Z,47.97
2023-04-27T10:22:09.592Z,45.65
2023-04-27T10:23:09.553Z,48.06
2023-04-27T10:24:09.568Z,48.02
2023-04-27T10:25:09.533Z,48.40
2023-04-27T10:26:09.543Z,48.86
2023-04-27T10:27:09.513Z,47.19
2023-04-27T10:28:09.555Z,47.17
2023-04-27T10:29:09.516Z,45.21
2023-04-27T10:30:09.518Z,46.64
2023-04-27T10:31:09.567Z,47.42
2023-04-27T10:32:09.521Z,50.00
2023-04-27T10:33:09.574Z,51.93
2023-04-27T10:34:09.547Z,53.95
2023-04-27T10:35:09.501Z,52.55
2023-04-27T10:36:09.478Z,52.34
2023-04-27T10:37:09.473Z,53.47
2023-04-27T10:38:09.493Z,51.29
2023-04-27T10:39:09.485Z,52.09
2023-04-27T10:40:09.455Z,50.23
2023-04-27T10:41:09.495Z,50.99
2023-04-27T10:42:09.425Z,52.01
2023-04-27T10:43:09.429Z,51.35
2023-04-27T10:44:09.424Z,51.04
2023-04-27T10:45:09.444Z,50.89
2023-04-27T10:46:09.457Z,51.93
2023-04-27T10:47:09.382Z,52.83
2023-04-27T10:48:09.441Z,53.90
2023-04-27T10:49:09.382Z,51.63
2023-04-27T10:50:09.389Z,52.88
2023-04-27T10:51:09.354Z,51.89
2023-04-27T10:52:09.373Z,53.88
2023-04-27T10:53:09.366Z,53.64
2023-04-27T10:54:09.343Z,51.93
2023-04-27T10:55:09.342Z,52.86
2023-04-27T10:56:09.314Z,51.20
2023-04-27T10:57:09.352Z,50.36
2023-04-27T10:58:09.320Z,49.73
2023-04-27T10:59:09.301Z,48.91
2023-04-27T11:00:09.316Z,48.30
2023-04-27T11:01:09.351Z,48.58
2023-04-27T11:02:09.334Z,47.85
2023-04-27T11:03:09.369Z,48.73
2023-04-27T11:04:09.330Z,50.61
2023-04-27T11:05:09.348Z,50.69
2023-04-27T11:06:09.282Z,50.36
2023-04-27T11:07:09.249Z,53.39
2023-04-27T11:08:09.320Z,51.15
2023-04-27T11:09:09.265Z,49.67
2023-04-27T11:10:09.235Z,51.81
2023-04-27T11:11:09.232Z,49.52
2023-04-27T11:12:09.216Z,51.66
2023-04-27T11:13:09.224Z,48.81
2023-04-27T11:14:09.197Z,50.64
2023-04-27T11:15:09.218Z,50.92
2023-04-27T11:16:09.244Z,48.99
2023-04-27T11:17:09.172Z,50.49
2023-04-27T11:18:09.177Z,48.54
2023-04-27T11:19:09.146Z,48.35
2023-04-27T11:20:09.252Z,50.42
2023-04-27T11:21:09.142Z,51.46
2023-04-27T11:22:09.105Z,48.96
2023-04-27T11:23:09.150Z,51.43
2023-04-27T11:24:09.140Z,51.79
2023-04-27T11:25:09.160Z,48.94
2023-04-27T11:26:09.121Z,50.75
2023-04-27T11:27:41.934Z,48.57
2023-04-27T11:28:09.035Z,46.80
2023-04-27T11:29:09.046Z,45.76
2023-04-27T11:30:09.050Z,45.17
2023-04-27T11:31:09.094Z,45.76
2023-04-27T11:32:09.115Z,45.62
2023-04-27T11:33:09.042Z,44.60
2023-04-27T11:34:08.996Z,44.48
2023-04-27T11:35:09.936Z,43.49
2023-04-27T11:36:08.969Z,44.68
2023-04-27T11:38:09.968Z,47.34
2023-04-27T11:39:09.113Z,46.83
2023-04-27T11:40:09.578Z,48.07
2023-04-27T11:41:08.991Z,47.72
2023-04-27T11:42:08.971Z,47.58
2023-04-27T11:43:08.950Z,47.14
2023-04-27T11:44:09.025Z,45.48
2023-04-27T11:45:08.929Z,44.54
2023-04-27T11:46:08.953Z,44.52
2023-04-27T11:47:09.048Z,43.49
2023-04-27T11:48:08.945Z,44.89
2023-04-27T11:49:08.988Z,43.35
2023-04-27T11:50:08.893Z,42.86
2023-04-27T11:51:08.869Z,44.27
2023-04-27T11:52:08.869Z,43.04
2023-04-27T11:53:08.856Z,43.75
2023-04-27T11:54:08.839Z,42.15
2023-04-27T11:55:08.966Z,44.10
2023-04-27T11:56:08.872Z,42.60
2023-04-27T11:57:08.826Z,44.77
2023-04-27T11:58:08.806Z,43.73
2023-04-27T11:59:08.803Z,47.00
2023-04-27T12:00:08.827Z,46.45
2023-04-27T12:01:08.792Z,46.56
2023-04-27T12:02:08.877Z,48.77
2023-04-27T12:03:09.019Z,44.79
2023-04-27T12:04:08.911Z,45.17
2023-04-27T12:05:09.054Z,44.28
2023-04-27T12:06:27.794Z,46.03
2023-04-27T12:07:10.756Z,45.21
2023-04-27T12:08:08.733Z,46.11
2023-04-27T12:09:08.724Z,44.06
2023-04-27T12:10:08.749Z,44.87
2023-04-27T12:11:08.701Z,43.02
2023-04-27T12:12:08.704Z,43.23
2023-04-27T12:13:08.695Z,46.31
2023-04-27T12:14:08.683Z,44.81
2023-04-27T12:15:08.811Z,45.46
2023-04-27T12:16:08.669Z,47.67
2023-04-27T12:17:08.727Z,44.73
2023-04-27T12:18:08.785Z,44.77
2023-04-27T12:19:08.665Z,43.65
2023-04-27T12:20:08.668Z,43.32
2023-04-27T12:21:08.750Z,44.93
2023-04-27T12:22:08.658Z,42.90
2023-04-27T12:23:08.635Z,44.73
2023-04-27T12:24:08.600Z,44.20
2023-04-27T12:25:08.650Z,43.99
2023-04-27T12:26:08.598Z,44.81
2023-04-27T12:27:08.599Z,44.01
2023-04-27T12:28:08.583Z,44.20
2023-04-27T12:29:08.578Z,45.90
2023-04-27T12:30:08.609Z,42.27
2023-04-27T12:31:08.686Z,43.59
2023-04-27T12:32:08.549Z,43.08
2023-04-27T12:33:08.546Z,43.71
2023-04-27T12:34:08.559Z,43.69
2023-04-27T12:35:08.552Z,43.67
2023-04-27T12:36:08.522Z,43.95
2023-04-27T12:37:08.529Z,43.67
2023-04-27T12:38:08.497Z,45.09
2023-04-27T12:39:08.493Z,43.06
2023-04-27T12:40:08.511Z,43.32
2023-04-27T12:41:08.486Z,47.75
2023-04-27T12:42:08.475Z,45.62
2023-04-27T12:43:08.491Z,45.09
2023-04-27T12:44:08.471Z,44.56
2023-04-27T12:45:08.485Z,47.13
2023-04-27T12:46:08.453Z,47.51
2023-04-27T12:47:08.516Z,44.99
2023-04-27T12:48:08.458Z,47.13
2023-04-27T12:49:08.462Z,45.29
2023-04-27T12:50:08.418Z,46.62
2023-04-27T12:51:08.420Z,47.02
2023-04-27T12:52:08.396Z,46.92
2023-04-27T12:53:08.377Z,45.58